N12687 KAWO-KEAT
Flight info
| Callsign | N12687 |
|---|---|
| Flight time | N/A |
| Altitude | 10500 |
| Route | KAWO KEAT |
| Aircraft | C172/L-SGBR/L |
Departure
| Time | 2026-05-08 03:25 |
|---|---|
| Airport | Arlington Municipal Airport (KAWO) |
Arrival
| Time | N/A |
|---|---|
| Airport | Pangborn Memorial Airport (KEAT) |
| Time | Latitude | Longitude | Altitude | Speed | Heading |
|---|---|---|---|---|---|
| 2026-05-08 03:13 | 48.15964 | -122.15382 | 136 ft | 0 kts | 267° |
| 2026-05-08 03:19 | 48.15964 | -122.15383 | 136 ft | 0 kts | 267° |
| 2026-05-08 03:20 | 48.15964 | -122.15382 | 136 ft | 0 kts | 267° |
| 2026-05-08 03:20 | 48.15964 | -122.15383 | 136 ft | 0 kts | 267° |
| 2026-05-08 03:20 | 48.15984 | -122.15428 | 136 ft | 11 kts | 357° |
| 2026-05-08 03:21 | 48.16075 | -122.15430 | 137 ft | 17 kts | 359° |
| 2026-05-08 03:21 | 48.16222 | -122.15433 | 138 ft | 21 kts | 359° |
| 2026-05-08 03:21 | 48.16369 | -122.15437 | 140 ft | 21 kts | 359° |
| 2026-05-08 03:21 | 48.16515 | -122.15440 | 141 ft | 21 kts | 359° |
| 2026-05-08 03:22 | 48.16659 | -122.15444 | 142 ft | 20 kts | 359° |
| 2026-05-08 03:22 | 48.16799 | -122.15447 | 143 ft | 20 kts | 359° |
| 2026-05-08 03:22 | 48.16939 | -122.15450 | 144 ft | 17 kts | 359° |
| 2026-05-08 03:22 | 48.16956 | -122.15506 | 144 ft | 10 kts | 232° |
| 2026-05-08 03:23 | 48.16947 | -122.15524 | 144 ft | 0 kts | 231° |
| 2026-05-08 03:23 | 48.16934 | -122.15548 | 144 ft | 12 kts | 232° |
| 2026-05-08 03:24 | 48.16855 | -122.15653 | 143 ft | 12 kts | 178° |
| 2026-05-08 03:24 | 48.16595 | -122.15647 | 143 ft | 62 kts | 179° |
| 2026-05-08 03:24 | 48.16039 | -122.15620 | 208 ft | 89 kts | 178° |
| 2026-05-08 03:24 | 48.15447 | -122.15598 | 504 ft | 82 kts | 181° |
| 2026-05-08 03:25 | 48.14882 | -122.15580 | 729 ft | 84 kts | 178° |
| 2026-05-08 03:25 | 48.14287 | -122.15514 | 960 ft | 84 kts | 175° |
| 2026-05-08 03:25 | 48.13724 | -122.15638 | 1199 ft | 85 kts | 214° |
| 2026-05-08 03:25 | 48.13397 | -122.16392 | 1397 ft | 90 kts | 259° |
| 2026-05-08 03:26 | 48.13378 | -122.17358 | 1605 ft | 93 kts | 268° |
| 2026-05-08 03:26 | 48.13411 | -122.18327 | 1827 ft | 94 kts | 291° |
| 2026-05-08 03:26 | 48.13923 | -122.18810 | 2053 ft | 94 kts | 6° |
| 2026-05-08 03:26 | 48.14548 | -122.18682 | 2311 ft | 89 kts | 4° |
| 2026-05-08 03:27 | 48.15156 | -122.18635 | 2552 ft | 87 kts | 6° |
| 2026-05-08 03:27 | 48.15598 | -122.18099 | 2731 ft | 91 kts | 77° |
| 2026-05-08 03:27 | 48.15663 | -122.17119 | 2904 ft | 95 kts | 82° |
| 2026-05-08 03:27 | 48.15776 | -122.16195 | 3146 ft | 90 kts | 79° |
| 2026-05-08 03:28 | 48.15922 | -122.15287 | 3360 ft | 89 kts | 82° |
| 2026-05-08 03:28 | 48.15721 | -122.14426 | 3518 ft | 90 kts | 125° |
| 2026-05-08 03:28 | 48.15407 | -122.13648 | 3720 ft | 89 kts | 123° |
| 2026-05-08 03:28 | 48.15087 | -122.12836 | 3885 ft | 91 kts | 120° |
| 2026-05-08 03:29 | 48.14841 | -122.11992 | 4111 ft | 87 kts | 114° |
| 2026-05-08 03:29 | 48.14632 | -122.11169 | 4308 ft | 85 kts | 112° |
| 2026-05-08 03:29 | 48.14376 | -122.10347 | 4491 ft | 86 kts | 118° |
| 2026-05-08 03:29 | 48.14095 | -122.09588 | 4695 ft | 83 kts | 128° |
| 2026-05-08 03:30 | 48.13711 | -122.07947 | 5035 ft | 85 kts | 102° |
| 2026-05-08 03:30 | 48.13421 | -122.06220 | 5366 ft | 84 kts | 107° |
| 2026-05-08 03:31 | 48.13121 | -122.04532 | 5684 ft | 86 kts | 107° |
| 2026-05-08 03:31 | 48.12642 | -122.02799 | 5944 ft | 91 kts | 129° |
| 2026-05-08 03:32 | 48.12263 | -122.02013 | 6035 ft | 96 kts | 127° |
| 2026-05-08 03:32 | 48.11901 | -122.01175 | 6179 ft | 99 kts | 122° |
| 2026-05-08 03:32 | 48.11544 | -122.00280 | 6333 ft | 99 kts | 123° |
| 2026-05-08 03:32 | 48.11209 | -121.99385 | 6489 ft | 98 kts | 121° |
| 2026-05-08 03:33 | 48.10900 | -121.98491 | 6638 ft | 95 kts | 117° |
| 2026-05-08 03:33 | 48.10637 | -121.97564 | 6779 ft | 95 kts | 109° |
| 2026-05-08 03:33 | 48.10434 | -121.96630 | 6927 ft | 92 kts | 110° |
| 2026-05-08 03:33 | 48.10255 | -121.95733 | 7091 ft | 89 kts | 106° |
| 2026-05-08 03:34 | 48.10110 | -121.94851 | 7242 ft | 86 kts | 107° |
| 2026-05-08 03:34 | 48.09980 | -121.93982 | 7349 ft | 88 kts | 105° |
| 2026-05-08 03:34 | 48.09846 | -121.93075 | 7467 ft | 89 kts | 106° |
| 2026-05-08 03:34 | 48.09685 | -121.92179 | 7571 ft | 90 kts | 111° |
| 2026-05-08 03:35 | 48.09508 | -121.91312 | 7726 ft | 85 kts | 110° |
| 2026-05-08 03:35 | 48.09335 | -121.90475 | 7870 ft | 81 kts | 109° |
| 2026-05-08 03:35 | 48.09175 | -121.89661 | 7960 ft | 84 kts | 110° |
| 2026-05-08 03:35 | 48.08990 | -121.88780 | 7994 ft | 94 kts | 112° |
| 2026-05-08 03:36 | 48.08790 | -121.87837 | 8078 ft | 96 kts | 110° |
| 2026-05-08 03:36 | 48.08599 | -121.86890 | 8178 ft | 97 kts | 110° |
| 2026-05-08 03:36 | 48.08381 | -121.85916 | 8246 ft | 101 kts | 114° |
| 2026-05-08 03:36 | 48.08140 | -121.84928 | 8347 ft | 103 kts | 112° |
| 2026-05-08 03:37 | 48.07915 | -121.83878 | 8390 ft | 108 kts | 111° |
| 2026-05-08 03:37 | 48.07703 | -121.82816 | 8488 ft | 105 kts | 110° |
| 2026-05-08 03:37 | 48.07493 | -121.81783 | 8571 ft | 103 kts | 111° |
| 2026-05-08 03:37 | 48.07270 | -121.80768 | 8664 ft | 102 kts | 111° |
| 2026-05-08 03:38 | 48.07041 | -121.79768 | 8772 ft | 101 kts | 114° |
| 2026-05-08 03:38 | 48.06797 | -121.78799 | 8872 ft | 101 kts | 114° |
| 2026-05-08 03:38 | 48.06554 | -121.77824 | 8955 ft | 100 kts | 114° |
| 2026-05-08 03:38 | 48.06317 | -121.76844 | 9064 ft | 100 kts | 114° |
| 2026-05-08 03:39 | 48.06078 | -121.75870 | 9164 ft | 100 kts | 114° |
| 2026-05-08 03:39 | 48.05828 | -121.74902 | 9259 ft | 100 kts | 115° |
| 2026-05-08 03:39 | 48.05501 | -121.74014 | 9352 ft | 96 kts | 134° |
| 2026-05-08 03:39 | 48.05026 | -121.73330 | 9440 ft | 96 kts | 140° |
| 2026-05-08 03:40 | 48.04580 | -121.72599 | 9557 ft | 94 kts | 134° |
| 2026-05-08 03:40 | 48.04153 | -121.71877 | 9662 ft | 94 kts | 136° |
| 2026-05-08 03:40 | 48.03814 | -121.71036 | 9720 ft | 98 kts | 113° |
| 2026-05-08 03:40 | 48.03572 | -121.70080 | 9803 ft | 99 kts | 117° |
| 2026-05-08 03:41 | 48.03298 | -121.69138 | 9873 ft | 99 kts | 117° |
| 2026-05-08 03:41 | 48.03024 | -121.68198 | 9958 ft | 99 kts | 117° |
| 2026-05-08 03:41 | 48.02750 | -121.67255 | 10042 ft | 99 kts | 117° |
| 2026-05-08 03:41 | 48.02473 | -121.66308 | 10133 ft | 100 kts | 117° |
| 2026-05-08 03:42 | 48.02195 | -121.65356 | 10228 ft | 100 kts | 117° |
| 2026-05-08 03:42 | 48.01921 | -121.64415 | 10314 ft | 100 kts | 117° |
| 2026-05-08 03:42 | 48.01642 | -121.63461 | 10405 ft | 100 kts | 117° |
| 2026-05-08 03:42 | 48.01361 | -121.62507 | 10497 ft | 101 kts | 117° |
| 2026-05-08 03:43 | 48.01062 | -121.61507 | 10504 ft | 109 kts | 118° |
| 2026-05-08 03:43 | 48.00741 | -121.60441 | 10510 ft | 115 kts | 118° |
| 2026-05-08 03:43 | 48.00408 | -121.59334 | 10516 ft | 118 kts | 118° |
| 2026-05-08 03:43 | 48.00068 | -121.58205 | 10522 ft | 120 kts | 118° |
| 2026-05-08 03:44 | 47.99721 | -121.57057 | 10509 ft | 122 kts | 118° |
| 2026-05-08 03:44 | 47.99372 | -121.55903 | 10514 ft | 122 kts | 118° |
| 2026-05-08 03:44 | 47.99027 | -121.54759 | 10502 ft | 122 kts | 118° |
| 2026-05-08 03:44 | 47.98683 | -121.53605 | 10500 ft | 121 kts | 118° |
| 2026-05-08 03:45 | 47.98341 | -121.52459 | 10498 ft | 121 kts | 117° |
| 2026-05-08 03:45 | 47.97999 | -121.51313 | 10497 ft | 121 kts | 117° |
| 2026-05-08 03:45 | 47.97660 | -121.50171 | 10497 ft | 120 kts | 117° |
| 2026-05-08 03:45 | 47.97323 | -121.49029 | 10500 ft | 120 kts | 118° |
| 2026-05-08 03:46 | 47.96975 | -121.47874 | 10505 ft | 126 kts | 117° |
| 2026-05-08 03:46 | 47.96608 | -121.46671 | 10494 ft | 127 kts | 118° |
| 2026-05-08 03:46 | 47.96242 | -121.45470 | 10490 ft | 126 kts | 118° |
| 2026-05-08 03:46 | 47.95887 | -121.44291 | 10496 ft | 126 kts | 117° |
| 2026-05-08 03:47 | 47.95553 | -121.43081 | 10494 ft | 126 kts | 116° |
| 2026-05-08 03:47 | 47.95225 | -121.41878 | 10489 ft | 124 kts | 116° |
| 2026-05-08 03:47 | 47.94908 | -121.40699 | 10480 ft | 121 kts | 116° |
| 2026-05-08 03:47 | 47.94595 | -121.39531 | 10479 ft | 122 kts | 116° |
| 2026-05-08 03:48 | 47.94278 | -121.38354 | 10480 ft | 123 kts | 116° |
| 2026-05-08 03:48 | 47.93956 | -121.37162 | 10485 ft | 124 kts | 116° |
| 2026-05-08 03:48 | 47.93632 | -121.35955 | 10479 ft | 125 kts | 116° |
| 2026-05-08 03:48 | 47.93330 | -121.34832 | 10486 ft | 126 kts | 115° |
| 2026-05-08 03:49 | 47.93002 | -121.33624 | 10481 ft | 125 kts | 116° |
| 2026-05-08 03:49 | 47.92682 | -121.32439 | 10475 ft | 124 kts | 115° |
| 2026-05-08 03:49 | 47.92369 | -121.31259 | 10475 ft | 122 kts | 115° |
| 2026-05-08 03:49 | 47.92051 | -121.30084 | 10474 ft | 123 kts | 116° |
| 2026-05-08 03:50 | 47.91736 | -121.28906 | 10473 ft | 121 kts | 115° |